Details From RJSA - Aomori
To UHSS - Khomutovo
Flight Number -
Tags Generated
Created
Modified
Stats Distance 380 nm / 703 km
Max Altitude 0 ft / 0 m
Waypoints 3
Social Downloads 1
Likes 0
Share VATSIM

Download

Looking for another format? Having issues loading an existing format? Contact us
Advertisement - Login to hide

Notes

Generated

Route

RJSA SL UHSS

ID Type Via Altitude Latitude Longitude Leg Dist Tot Dist Heading (true) Name
O RJSA APT - 0 ft / 0 m 40.72494˚ 140.67461˚ - 0 nm - -
SL NDB - 0 ft / 0 m 46.83333˚ 142.71333˚ 377 nm 377 nm 13° / 14° YUZHNO-SAKHALINSK NDB
O UHSS APT - 0 ft / 0 m 46.87036˚ 142.71727˚ 2 nm 379 nm 4° / 4° -

Altitude Profile

Advertisement - Login to hide

Weather


0- 5 10 15 20 25 30 35+ Temperature / ° C

Clouds and Precipitation
Forecast for 2017-12-15 12:00 UTC. Updated an hour ago

Ground ~20,000 ft ~40,000 ft Winds

RJSA

Details ICAO RJSA (AOJ)
Name AOMORI
Region Japan
Timezone Asia/Tokyo (UTC+9.0)
Stats Elevation 664 ft / 202 m (AMSL)
Location 40.733272° 140.688594°
Runways 1
Magnetic Variation 8.939° W

METAR

RJSA 150800Z 23004KT 9999 FEW020 BKN040 01/M03 Q1019

Decode

TAF

TAF RJSA 150515Z 1506/1612 24008KT 9999 FEW010 BKN020 BKN030 BECMG 1516/1518 21018KT TEMPO 1518/1600 21020G30KT 1500 -SHSNRA BR FEW003 BKN005 BKN008 TEMPO 1600/1603 1500 -SHSNRA BR FEW003 BKN005 BKN008 BECMG 1600/1603 26008KT TEMPO 1603/1612 0700 SHSN FEW003 BKN005 BKN008

Decode

Departure Runways

ID Width Length Bearing (true) Bearing (mag) Surface Threshold Offset Overrun Length
06 200 ft / 61 m 9,838 ft / 2,999 m 51.79° 60.73° Asphalt 0 ft / 0 m 200 ft / 61 m
24 200 ft / 61 m 9,838 ft / 2,999 m 231.81° 240.75° Asphalt 0 ft / 0 m 200 ft / 61 m

UHSS

Details ICAO UHSS (UUS)
Name KHOMUTOVO
Region Russia
Timezone Asia/Sakhalin (UTC+11.0)
Stats Elevation 59 ft / 18 m (AMSL)
Location 46.885582° 142.717529°
Runways 1
Magnetic Variation 10.385° W

METAR

UHSS 150830Z 35003MPS 9999 -SHSN SCT030CB M04/M05 Q1013 R01/490345 NOSIG RMK MT OBSC QFE758/1011

Decode

TAF

TAF UHSS 150800Z 1509/1615 30003MPS 5000 -SHSN BKN025CB OVC080 TEMPO 1509/1615 1000 SHSN BKN004 OVC020CB BECMG 1610/1612 34007MPS

Decode

Destination Runways

ID Width Length Bearing (true) Bearing (mag) Surface Threshold Offset Overrun Length
01 148 ft / 45 m 11,109 ft / 3,386 m 0.66° 11.04° Concrete 0 ft / 0 m 255 ft / 78 m
19 148 ft / 45 m 11,109 ft / 3,386 m 180.66° 191.04° Concrete 0 ft / 0 m 265 ft / 81 m